createdAt,value
2019-02-26T00:02:11.425Z,10.40
2019-02-26T00:04:41.783Z,10.40
2019-02-26T00:07:14.222Z,10.30
2019-02-26T00:09:43.903Z,10.30
2019-02-26T00:12:13.736Z,10.30
2019-02-26T00:14:45.360Z,10.20
2019-02-26T00:17:17.462Z,10.00
2019-02-26T00:19:47.385Z,9.80
2019-02-26T00:22:18.247Z,9.60
2019-02-26T00:24:48.391Z,9.80
2019-02-26T00:27:18.333Z,9.80
2019-02-26T00:29:49.249Z,9.70
2019-02-26T00:32:20.500Z,9.70
2019-02-26T00:34:50.517Z,9.70
2019-02-26T00:37:22.238Z,9.60
2019-02-26T00:39:54.122Z,9.60
2019-02-26T00:42:26.221Z,9.70
2019-02-26T00:44:58.273Z,9.90
2019-02-26T00:47:29.893Z,9.70
2019-02-26T00:49:59.419Z,9.50
2019-02-26T00:52:30.404Z,9.50
2019-02-26T00:55:03.164Z,9.30
2019-02-26T00:57:33.562Z,9.20
2019-02-26T01:00:09.813Z,9.20
2019-02-26T01:02:39.604Z,9.10
2019-02-26T01:05:12.932Z,9.00
2019-02-26T01:07:44.915Z,8.80
2019-02-26T01:10:16.143Z,8.80
2019-02-26T01:12:46.041Z,8.80
2019-02-26T01:15:18.903Z,8.80
2019-02-26T01:17:49.015Z,8.70
2019-02-26T01:20:24.272Z,8.60
2019-02-26T01:22:51.887Z,8.80
2019-02-26T01:25:22.936Z,8.70
2019-02-26T01:27:55.702Z,8.50
2019-02-26T01:30:27.042Z,8.40
2019-02-26T01:32:58.210Z,8.30
2019-02-26T01:35:30.548Z,8.40
2019-02-26T01:38:00.619Z,8.50
2019-02-26T01:40:30.622Z,8.40
2019-02-26T01:43:03.012Z,8.40
2019-02-26T01:45:32.517Z,8.30
2019-02-26T01:48:04.092Z,8.20
2019-02-26T01:50:35.682Z,8.30
2019-02-26T01:53:05.892Z,8.30
2019-02-26T01:55:35.803Z,8.20
2019-02-26T01:58:05.816Z,8.30
2019-02-26T02:00:35.666Z,8.20
2019-02-26T02:03:05.506Z,8.20
2019-02-26T02:05:35.457Z,8.10
2019-02-26T02:08:09.053Z,8.00
2019-02-26T02:10:37.543Z,8.10
2019-02-26T02:13:09.177Z,8.10
2019-02-26T02:15:40.496Z,8.00
2019-02-26T02:18:11.810Z,7.90
2019-02-26T02:20:41.724Z,7.90
2019-02-26T02:23:11.780Z,7.80
2019-02-26T02:25:43.342Z,8.10
2019-02-26T02:28:19.201Z,8.20
2019-02-26T02:30:46.100Z,7.80
2019-02-26T02:33:19.550Z,7.70
2019-02-26T02:35:47.677Z,7.60
2019-02-26T02:38:20.438Z,7.60
2019-02-26T02:40:51.901Z,7.60
2019-02-26T02:43:23.513Z,7.60
2019-02-26T02:45:55.142Z,7.50
2019-02-26T02:48:24.356Z,7.50
2019-02-26T02:50:54.246Z,7.40
2019-02-26T02:53:26.513Z,7.60
2019-02-26T02:55:55.842Z,7.80
2019-02-26T02:58:26.056Z,7.60
2019-02-26T03:00:57.147Z,7.80
2019-02-26T03:03:28.138Z,7.90
2019-02-26T03:05:58.900Z,7.60
2019-02-26T03:08:29.735Z,7.50
2019-02-26T03:11:00.140Z,7.40
2019-02-26T03:13:30.054Z,7.30
2019-02-26T03:16:01.672Z,7.40
2019-02-26T03:18:31.650Z,7.50
2019-02-26T03:21:04.341Z,7.60
2019-02-26T03:23:36.920Z,7.30
2019-02-26T03:26:10.028Z,7.40
2019-02-26T03:28:39.974Z,7.40
2019-02-26T03:31:09.181Z,7.30
2019-02-26T03:33:39.193Z,7.20
2019-02-26T03:36:11.146Z,7.10
2019-02-26T03:38:44.169Z,7.20
2019-02-26T03:41:12.863Z,7.20
2019-02-26T03:43:43.178Z,7.10
2019-02-26T03:46:13.575Z,7.00
2019-02-26T03:48:43.493Z,7.10
2019-02-26T03:51:17.185Z,7.20
2019-02-26T03:53:45.207Z,7.00
2019-02-26T03:56:17.563Z,7.10
2019-02-26T03:58:47.181Z,7.10
2019-02-26T04:01:20.989Z,7.10
2019-02-26T04:03:49.267Z,7.10
2019-02-26T04:06:19.175Z,7.30
2019-02-26T04:08:51.067Z,7.20
2019-02-26T04:11:22.868Z,7.10
2019-02-26T04:13:54.569Z,7.00
2019-02-26T04:16:24.537Z,6.70
2019-02-26T04:18:54.508Z,6.90
2019-02-26T04:21:24.458Z,6.90
2019-02-26T04:23:54.961Z,6.60
2019-02-26T04:26:34.992Z,6.50
2019-02-26T04:29:14.053Z,6.80
2019-02-26T04:32:24.606Z,7.00
2019-02-26T04:34:57.610Z,6.90
2019-02-26T04:37:58.580Z,7.00
2019-02-26T04:40:38.232Z,7.00
2019-02-26T04:43:31.411Z,7.00
2019-02-26T04:46:28.231Z,6.80
2019-02-26T04:48:57.632Z,7.00
2019-02-26T04:51:27.545Z,7.00
2019-02-26T04:53:59.483Z,6.90
2019-02-26T04:56:31.566Z,6.80
2019-02-26T04:59:03.551Z,6.80
2019-02-26T05:01:34.679Z,6.80
2019-02-26T05:04:04.681Z,6.70
2019-02-26T05:06:34.598Z,6.50
2019-02-26T05:09:07.531Z,6.40
2019-02-26T05:11:40.651Z,6.40
2019-02-26T05:14:09.853Z,6.40
2019-02-26T05:16:41.043Z,6.40
2019-02-26T05:19:13.539Z,6.30
2019-02-26T05:21:42.628Z,6.40
2019-02-26T05:24:14.930Z,6.50
2019-02-26T05:26:44.129Z,6.40
2019-02-26T05:29:14.433Z,6.40
2019-02-26T05:31:44.447Z,6.40
2019-02-26T05:34:17.425Z,6.40
2019-02-26T05:36:46.490Z,6.30
2019-02-26T05:39:20.395Z,6.10
2019-02-26T05:41:52.339Z,6.00
2019-02-26T05:44:20.010Z,6.00
2019-02-26T05:46:52.640Z,5.90
2019-02-26T05:49:21.719Z,5.90
2019-02-26T05:51:53.496Z,6.20
2019-02-26T05:54:24.516Z,6.10
2019-02-26T05:56:54.501Z,6.20
2019-02-26T05:59:24.508Z,6.10
2019-02-26T06:01:55.944Z,6.10
2019-02-26T06:04:26.298Z,6.20
2019-02-26T06:06:58.985Z,6.00
2019-02-26T06:09:30.420Z,5.90
2019-02-26T06:11:59.475Z,6.10
2019-02-26T06:14:31.276Z,6.40
2019-02-26T06:17:01.176Z,6.40
2019-02-26T06:19:42.290Z,6.30
2019-02-26T06:22:17.222Z,6.20
2019-02-26T06:24:44.485Z,6.20
2019-02-26T06:27:18.279Z,6.30
2019-02-26T06:29:47.257Z,6.20
2019-02-26T06:32:20.023Z,6.00
2019-02-26T06:34:50.026Z,5.80
2019-02-26T06:37:24.670Z,5.80
2019-02-26T06:39:57.285Z,5.80
2019-02-26T06:42:28.344Z,5.80
2019-02-26T06:44:58.596Z,5.90
2019-02-26T06:47:30.995Z,5.90
2019-02-26T06:50:00.261Z,5.80
2019-02-26T06:52:35.067Z,5.70
2019-02-26T06:55:03.552Z,6.00
2019-02-26T06:57:33.508Z,6.10
2019-02-26T07:00:04.581Z,6.10
2019-02-26T07:02:34.514Z,6.30
2019-02-26T07:05:04.921Z,6.30
2019-02-26T07:07:35.912Z,6.30
2019-02-26T07:10:13.790Z,6.30
2019-02-26T07:12:50.535Z,6.50
2019-02-26T07:15:20.892Z,6.50
2019-02-26T07:17:51.103Z,6.50
2019-02-26T07:20:21.012Z,6.50
2019-02-26T07:22:51.630Z,6.40
2019-02-26T07:25:22.118Z,6.40
2019-02-26T07:27:53.694Z,6.40
2019-02-26T07:30:23.821Z,6.50
2019-02-26T07:32:53.726Z,6.40
2019-02-26T07:35:23.641Z,6.40
2019-02-26T07:37:54.619Z,6.50
2019-02-26T07:40:25.336Z,6.60
2019-02-26T07:42:55.348Z,6.60
2019-02-26T07:45:27.439Z,6.60
2019-02-26T07:47:58.474Z,6.60
2019-02-26T07:50:31.437Z,6.70
2019-02-26T07:53:00.900Z,6.70
2019-02-26T07:55:32.700Z,6.70
2019-02-26T07:58:03.188Z,6.90
2019-02-26T08:00:37.004Z,6.90
2019-02-26T08:03:04.782Z,7.00
2019-02-26T08:05:34.790Z,7.10
2019-02-26T08:08:04.704Z,7.20
2019-02-26T08:10:37.196Z,7.20
2019-02-26T08:13:08.003Z,7.20
2019-02-26T08:15:39.879Z,7.30
2019-02-26T08:18:09.863Z,7.40
2019-02-26T08:20:40.372Z,7.60
2019-02-26T08:23:10.675Z,7.60
2019-02-26T08:25:41.066Z,7.70
2019-02-26T08:28:13.012Z,7.70
2019-02-26T08:30:45.243Z,7.70
2019-02-26T08:33:15.046Z,7.80
2019-02-26T08:35:45.157Z,7.80
2019-02-26T08:38:16.322Z,7.90
2019-02-26T08:40:46.457Z,8.00
2019-02-26T08:43:16.665Z,8.00
2019-02-26T08:45:46.579Z,8.20
2019-02-26T08:48:17.330Z,8.30
2019-02-26T08:50:48.176Z,8.50
2019-02-26T08:53:19.739Z,8.70
2019-02-26T08:55:51.548Z,8.80
2019-02-26T08:58:21.456Z,8.80
2019-02-26T09:00:51.466Z,9.00
2019-02-26T09:03:21.578Z,9.10
2019-02-26T09:05:53.829Z,9.10
2019-02-26T09:08:23.568Z,9.30
2019-02-26T09:10:53.482Z,9.40
2019-02-26T09:13:25.461Z,9.60
2019-02-26T09:15:58.172Z,9.70
2019-02-26T09:18:28.316Z,9.70
2019-02-26T09:20:59.623Z,9.80
2019-02-26T09:23:30.526Z,10.00
2019-02-26T09:26:02.573Z,10.10
2019-02-26T09:28:33.100Z,10.30
2019-02-26T09:31:04.682Z,10.50
2019-02-26T09:33:37.593Z,10.70
2019-02-26T09:36:10.516Z,10.90
2019-02-26T09:38:39.919Z,11.10
2019-02-26T09:41:11.855Z,11.20
2019-02-26T09:43:43.382Z,11.40
2019-02-26T09:46:16.321Z,11.40
2019-02-26T09:48:46.189Z,11.70
2019-02-26T09:51:16.696Z,11.80
2019-02-26T09:53:47.650Z,11.90
2019-02-26T09:56:18.592Z,12.10
2019-02-26T09:58:50.698Z,12.30
2019-02-26T10:01:20.359Z,12.50
2019-02-26T10:03:50.274Z,12.90
2019-02-26T10:06:21.659Z,13.30
2019-02-26T10:08:53.326Z,14.10
2019-02-26T10:11:27.408Z,14.90
2019-02-26T10:13:55.826Z,15.70
2019-02-26T10:16:28.135Z,16.30
2019-02-26T10:18:57.427Z,16.50
2019-02-26T10:21:27.336Z,17.20
2019-02-26T10:23:59.306Z,17.60
2019-02-26T10:26:30.768Z,17.70
2019-02-26T10:29:04.417Z,18.10
2019-02-26T10:31:32.694Z,17.80
2019-02-26T10:34:03.106Z,18.00
2019-02-26T10:36:37.790Z,17.60
2019-02-26T10:39:08.523Z,18.30
2019-02-26T10:41:39.888Z,18.90
2019-02-26T10:44:10.417Z,18.70
2019-02-26T10:46:42.546Z,19.70
2019-02-26T10:49:12.477Z,19.30
2019-02-26T10:51:43.118Z,19.10
2019-02-26T10:54:17.890Z,19.70
2019-02-26T10:56:45.095Z,19.50
2019-02-26T10:59:18.787Z,19.40
2019-02-26T11:01:49.671Z,19.60
2019-02-26T11:04:19.164Z,21.10
2019-02-26T11:06:49.503Z,21.40
2019-02-26T11:09:25.340Z,21.90
2019-02-26T11:11:54.959Z,22.40
2019-02-26T11:14:25.312Z,22.90
2019-02-26T11:16:55.709Z,22.80
2019-02-26T11:19:27.337Z,22.90
2019-02-26T11:21:58.679Z,23.40
2019-02-26T11:24:31.403Z,23.50
2019-02-26T11:27:00.967Z,23.70
2019-02-26T11:29:33.805Z,23.80
2019-02-26T11:32:04.515Z,23.70
2019-02-26T11:34:37.702Z,23.40
2019-02-26T11:37:08.874Z,24.00
2019-02-26T11:39:38.497Z,23.80
2019-02-26T11:42:10.450Z,24.30
2019-02-26T11:44:40.095Z,24.10
2019-02-26T11:47:11.137Z,24.40
2019-02-26T11:49:44.123Z,24.50
2019-02-26T11:52:13.770Z,24.80
2019-02-26T11:54:44.633Z,25.10
2019-02-26T11:57:15.817Z,24.50
2019-02-26T11:59:46.846Z,24.90
2019-02-26T12:02:25.179Z,24.90
2019-02-26T12:04:48.444Z,25.20
2019-02-26T12:07:18.556Z,25.50
2019-02-26T12:09:48.959Z,25.40
2019-02-26T12:12:18.872Z,24.90
2019-02-26T12:14:48.981Z,25.10
2019-02-26T12:17:18.993Z,24.70
2019-02-26T12:19:51.510Z,25.10
2019-02-26T12:22:22.743Z,24.90
2019-02-26T12:24:55.706Z,25.10
2019-02-26T12:27:24.544Z,24.70
2019-02-26T12:29:54.770Z,24.50
2019-02-26T12:32:26.882Z,24.80
2019-02-26T12:34:57.070Z,25.00
2019-02-26T12:37:27.221Z,24.80
2019-02-26T12:39:57.928Z,25.10
2019-02-26T12:42:28.356Z,25.70
2019-02-26T12:45:01.854Z,25.30
2019-02-26T12:47:30.340Z,25.00
2019-02-26T12:50:02.748Z,25.30
2019-02-26T12:52:33.019Z,25.30
2019-02-26T12:55:04.196Z,25.90
2019-02-26T12:57:34.713Z,25.30
2019-02-26T13:00:10.663Z,25.10
2019-02-26T13:02:39.994Z,25.30
2019-02-26T13:05:13.477Z,25.30
2019-02-26T13:07:44.695Z,25.10
2019-02-26T13:10:24.827Z,25.40
2019-02-26T13:12:59.304Z,25.90
2019-02-26T13:15:26.458Z,25.90
2019-02-26T13:17:56.486Z,25.20
2019-02-26T13:20:28.200Z,25.50
2019-02-26T13:25:30.668Z,24.60
2019-02-26T13:28:00.937Z,24.50
2019-02-26T13:30:30.923Z,25.70
2019-02-26T13:33:05.326Z,25.40
2019-02-26T13:35:33.005Z,24.90
2019-02-26T13:38:06.004Z,25.10
2019-02-26T13:40:38.659Z,24.90
2019-02-26T13:43:09.430Z,25.10
2019-02-26T13:45:39.738Z,25.40
2019-02-26T13:48:10.434Z,25.30
2019-02-26T13:50:40.643Z,25.10
2019-02-26T13:53:10.567Z,25.10
2019-02-26T13:55:40.539Z,24.80
2019-02-26T13:58:12.042Z,24.70
2019-02-26T14:00:43.035Z,25.10
2019-02-26T14:03:13.063Z,25.00
2019-02-26T14:05:43.468Z,24.70
2019-02-26T14:08:13.480Z,24.60
2019-02-26T14:10:43.733Z,24.40
2019-02-26T14:13:13.698Z,24.80
2019-02-26T14:15:43.630Z,24.90
2019-02-26T14:18:13.674Z,24.20
2019-02-26T14:20:45.446Z,24.00
2019-02-26T14:23:15.515Z,24.00
2019-02-26T14:25:46.319Z,24.20
2019-02-26T14:28:16.228Z,24.30
2019-02-26T14:30:46.140Z,24.90
2019-02-26T14:33:16.352Z,25.00
2019-02-26T14:35:46.766Z,24.30
2019-02-26T14:38:16.768Z,24.00
2019-02-26T14:40:46.971Z,24.20
2019-02-26T14:43:17.084Z,24.50
2019-02-26T14:45:46.999Z,24.30
2019-02-26T14:48:16.911Z,23.90
2019-02-26T14:50:46.823Z,23.70
2019-02-26T14:53:16.739Z,23.30
2019-02-26T14:55:47.144Z,23.30
2019-02-26T14:58:17.351Z,23.20
2019-02-26T15:00:57.173Z,23.40
2019-02-26T15:03:19.151Z,23.50
2019-02-26T15:05:49.061Z,23.80
2019-02-26T15:08:19.267Z,23.70
2019-02-26T15:10:49.178Z,23.50
2019-02-26T15:13:19.095Z,23.90
2019-02-26T15:15:49.005Z,24.00
2019-02-26T15:18:18.918Z,23.70
2019-02-26T15:20:49.129Z,23.50
2019-02-26T15:23:19.041Z,23.80
2019-02-26T15:25:48.954Z,23.50
2019-02-26T15:28:18.867Z,23.40
2019-02-26T15:30:48.786Z,22.90
2019-02-26T15:33:18.998Z,22.40
2019-02-26T15:35:49.003Z,22.30
2019-02-26T15:38:19.015Z,22.00
2019-02-26T15:40:51.144Z,22.00
2019-02-26T15:43:20.788Z,22.10
2019-02-26T15:45:52.241Z,22.00
2019-02-26T15:48:22.427Z,21.90
2019-02-26T15:50:52.318Z,21.60
2019-02-26T15:53:23.760Z,21.60
2019-02-26T15:55:59.024Z,21.50
2019-02-26T15:58:26.192Z,21.30
2019-02-26T16:00:56.394Z,21.30
2019-02-26T16:03:29.476Z,21.20
2019-02-26T16:05:58.286Z,21.00
2019-02-26T16:08:34.482Z,20.80
2019-02-26T16:11:00.181Z,20.50
2019-02-26T16:13:30.200Z,20.40
2019-02-26T16:16:00.397Z,20.40
2019-02-26T16:18:30.239Z,20.30
2019-02-26T16:21:00.425Z,20.30
2019-02-26T16:23:30.824Z,20.50
2019-02-26T16:26:00.820Z,20.40
2019-02-26T16:28:30.854Z,20.40
2019-02-26T16:31:00.768Z,20.40
2019-02-26T16:33:30.773Z,20.30
2019-02-26T16:36:00.689Z,20.10
2019-02-26T16:38:30.699Z,20.00
2019-02-26T16:41:02.852Z,19.80
2019-02-26T16:43:32.689Z,19.60
2019-02-26T16:46:03.094Z,19.40
2019-02-26T16:48:33.011Z,19.20
2019-02-26T16:51:03.128Z,19.10
2019-02-26T16:53:34.220Z,19.00
2019-02-26T16:56:04.409Z,18.90
2019-02-26T16:58:35.585Z,18.80
2019-02-26T17:01:08.187Z,18.80
2019-02-26T17:03:38.194Z,18.80
2019-02-26T17:06:08.203Z,18.70
2019-02-26T17:08:38.214Z,18.60
2019-02-26T17:11:08.719Z,18.50
2019-02-26T17:13:42.688Z,18.30
2019-02-26T17:16:10.902Z,18.10
2019-02-26T17:18:42.811Z,18.00
2019-02-26T17:21:13.088Z,17.90
2019-02-26T17:23:44.775Z,17.80
2019-02-26T17:26:14.685Z,17.80
2019-02-26T17:28:44.598Z,17.70
2019-02-26T17:31:14.512Z,17.70
2019-02-26T17:33:44.730Z,17.70
2019-02-26T17:36:16.405Z,17.50
2019-02-26T17:38:46.611Z,17.30
2019-02-26T17:41:16.720Z,17.20
2019-02-26T17:43:46.645Z,16.90
2019-02-26T17:46:16.649Z,16.50
2019-02-26T17:48:46.457Z,16.70
2019-02-26T17:51:18.743Z,16.80
2019-02-26T17:53:48.111Z,16.80
2019-02-26T17:56:18.073Z,16.60
2019-02-26T17:58:49.454Z,16.40
2019-02-26T18:01:19.676Z,16.40
2019-02-26T18:03:49.973Z,16.60
2019-02-26T18:06:19.888Z,16.70
2019-02-26T18:08:49.999Z,16.80
2019-02-26T18:11:20.872Z,16.70
2019-02-26T18:13:51.897Z,16.70
2019-02-26T18:16:22.103Z,16.50
2019-02-26T18:18:52.407Z,16.30
2019-02-26T18:21:22.415Z,16.20
2019-02-26T18:23:52.649Z,16.20
2019-02-26T18:26:22.832Z,16.00
2019-02-26T18:28:53.223Z,16.00
2019-02-26T18:31:26.385Z,15.90
2019-02-26T18:33:55.323Z,15.90
2019-02-26T18:36:25.338Z,15.90
2019-02-26T18:38:55.743Z,15.70
2019-02-26T18:41:25.851Z,15.60
2019-02-26T18:43:57.439Z,15.50
2019-02-26T18:46:27.611Z,15.40
2019-02-26T18:48:57.559Z,15.40
2019-02-26T18:51:27.872Z,15.30
2019-02-26T18:53:57.901Z,15.10
2019-02-26T18:56:27.895Z,14.90
2019-02-26T18:58:57.913Z,14.70
2019-02-26T19:01:28.458Z,14.70
2019-02-26T19:03:59.984Z,14.70
2019-02-26T19:06:29.902Z,14.80
2019-02-26T19:09:00.008Z,14.70
2019-02-26T19:11:30.121Z,14.60
2019-02-26T19:14:00.429Z,14.50
2019-02-26T19:16:30.384Z,14.40
2019-02-26T19:19:00.349Z,14.40
2019-02-26T19:21:30.371Z,14.50
2019-02-26T19:24:04.411Z,14.30
2019-02-26T19:26:32.454Z,14.20
2019-02-26T19:29:02.558Z,14.00
2019-02-26T19:31:32.374Z,14.10
2019-02-26T19:34:02.690Z,14.10
2019-02-26T19:36:32.792Z,14.00
2019-02-26T19:39:02.712Z,13.80
2019-02-26T19:41:32.849Z,13.80
2019-02-26T19:44:02.698Z,14.00
2019-02-26T19:46:32.542Z,13.90
2019-02-26T19:49:05.555Z,13.70
2019-02-26T19:51:34.809Z,13.60
2019-02-26T19:54:07.006Z,13.50
2019-02-26T19:56:37.013Z,13.40
2019-02-26T19:59:07.123Z,13.20
2019-02-26T20:01:37.114Z,13.20
2019-02-26T20:04:07.533Z,13.10
2019-02-26T20:06:37.846Z,12.70
2019-02-26T20:09:08.610Z,12.90
2019-02-26T20:11:38.855Z,12.90
2019-02-26T20:14:11.395Z,12.80
2019-02-26T20:16:40.472Z,12.80
2019-02-26T20:19:10.469Z,12.70
2019-02-26T20:21:40.605Z,12.70
2019-02-26T20:24:10.582Z,12.60
2019-02-26T20:26:40.750Z,12.60
2019-02-26T20:29:10.701Z,12.50
2019-02-26T20:31:40.615Z,12.40
2019-02-26T20:34:10.425Z,12.50
2019-02-26T20:36:40.737Z,12.60
2019-02-26T20:39:10.796Z,12.30
2019-02-26T20:41:41.160Z,12.10
2019-02-26T20:44:11.269Z,12.40
2019-02-26T20:46:41.277Z,12.50
2019-02-26T20:49:12.341Z,12.50
2019-02-26T20:51:43.171Z,12.40
2019-02-26T20:54:13.965Z,12.30
2019-02-26T20:56:44.852Z,12.50
2019-02-26T20:59:17.812Z,12.20
2019-02-26T21:01:47.160Z,12.10
2019-02-26T21:04:17.157Z,12.10
2019-02-26T21:06:50.666Z,12.00
2019-02-26T21:09:19.138Z,11.70
2019-02-26T21:11:49.135Z,11.60
2019-02-26T21:14:19.495Z,11.50
2019-02-26T21:16:53.452Z,11.60
2019-02-26T21:19:21.925Z,11.60
2019-02-26T21:21:51.863Z,11.50
2019-02-26T21:24:21.722Z,11.80
2019-02-26T21:26:52.929Z,11.80
2019-02-26T21:29:23.663Z,11.90
2019-02-26T21:31:53.872Z,11.70
2019-02-26T21:34:24.583Z,11.40
2019-02-26T21:36:54.878Z,11.40
2019-02-26T21:39:24.922Z,11.70
2019-02-26T21:41:56.353Z,11.70
2019-02-26T21:44:26.529Z,11.60
2019-02-26T21:46:56.951Z,11.70
2019-02-26T21:49:27.105Z,11.50
2019-02-26T21:51:57.395Z,11.60
2019-02-26T21:54:27.333Z,11.60
2019-02-26T21:56:57.433Z,11.60
2019-02-26T21:59:27.691Z,11.50
2019-02-26T22:01:57.674Z,11.40
2019-02-26T22:04:31.707Z,11.50
2019-02-26T22:06:59.638Z,11.40
2019-02-26T22:09:30.178Z,11.50
2019-02-26T22:12:00.643Z,11.40
2019-02-26T22:14:30.560Z,11.20
2019-02-26T22:17:00.492Z,11.30
2019-02-26T22:19:30.490Z,11.40
2019-02-26T22:22:00.617Z,11.30
2019-02-26T22:24:30.633Z,11.40
2019-02-26T22:27:00.654Z,11.20
2019-02-26T22:29:30.633Z,11.20
2019-02-26T22:32:02.379Z,11.20
2019-02-26T22:34:32.473Z,11.10
2019-02-26T22:37:07.005Z,11.10
2019-02-26T22:39:34.661Z,11.10
2019-02-26T22:42:07.822Z,11.10
2019-02-26T22:44:36.505Z,11.00
2019-02-26T22:47:07.021Z,10.90
2019-02-26T22:49:38.161Z,10.70
2019-02-26T22:52:08.211Z,10.40
2019-02-26T22:54:40.678Z,10.40
2019-02-26T22:57:10.113Z,10.40
2019-02-26T22:59:40.897Z,10.60
2019-02-26T23:02:12.419Z,10.50
2019-02-26T23:04:42.741Z,10.40
2019-02-26T23:07:13.213Z,10.10
2019-02-26T23:09:43.595Z,10.00
2019-02-26T23:12:14.292Z,10.00
2019-02-26T23:14:44.517Z,9.90
2019-02-26T23:17:14.709Z,9.80
2019-02-26T23:19:45.130Z,9.90
2019-02-26T23:22:15.029Z,9.90
2019-02-26T23:24:46.028Z,9.90
2019-02-26T23:27:16.082Z,9.80
2019-02-26T23:29:46.681Z,9.50
2019-02-26T23:32:17.727Z,9.40
2019-02-26T23:34:54.637Z,9.50
2019-02-26T23:37:23.916Z,9.40
2019-02-26T23:39:54.255Z,9.30
2019-02-26T23:42:24.163Z,9.30
2019-02-26T23:44:54.407Z,9.30
2019-02-26T23:47:24.527Z,9.40
2019-02-26T23:49:55.402Z,9.50
2019-02-26T23:52:27.763Z,9.70
2019-02-26T23:54:57.364Z,9.40
2019-02-26T23:57:27.950Z,9.50
2019-02-26T23:59:57.884Z,9.70
